Upper Tract, West Virginia
Current Conditions -  °F | °C
As of 12:55 PM on Thursday 23 Oct 2014 (Local Time) from KW99 Reporting Station
Scattered Clouds Scattered Clouds  
Wind Chill: 55°   Ceiling: Unl
Heat Index: 55°   Visibility: 10mi
Dew Point: 40°   Wind: 9mph
Humidity: 55%   Direction: 330°NNW
Pressure: 30.06"   Gusts: 22mph
Location:  38.79°N, 79.28°W
Report Text: KW99 231655Z AUTO 33008G19KT 290V360 10SM SCT035 SCT044 SCT050 13/04 A3006 RMK AO2 T01300042
Loading
Personal Weather Stations






























Interactive Weather Map
Tropical Storm Tracking
New forecast layout! Learn more

10-Day Weather Forecast

Advertisements
Track Severe Weather on mobile